createdAt,value
2022-11-16T00:19:44.547Z,8.3
2022-11-16T00:37:34.977Z,8.3
2022-11-16T00:59:28.464Z,8.23
2022-11-16T01:19:13.539Z,8.16
2022-11-16T01:38:34.675Z,8.1
2022-11-16T01:59:38.035Z,8
2022-11-16T02:19:27.524Z,7.88
2022-11-16T02:38:21.932Z,7.77
2022-11-16T02:58:35.799Z,7.71
2022-11-16T03:18:34.722Z,7.6
2022-11-16T03:38:44.433Z,7.24
2022-11-16T03:59:08.243Z,6.77
2022-11-16T04:18:57.881Z,6.4
2022-11-16T04:38:56.049Z,6.21
2022-11-16T04:58:21.116Z,6.06
2022-11-16T05:19:21.655Z,5.94
2022-11-16T05:39:38.080Z,5.82
2022-11-16T05:58:47.498Z,5.59
2022-11-16T06:19:17.905Z,5.58
2022-11-16T06:38:34.627Z,5.41
2022-11-16T06:57:51.358Z,5.39
2022-11-16T07:19:15.773Z,5.41
2022-11-16T07:39:23.650Z,5.35
2022-11-16T07:59:11.132Z,5.3
2022-11-16T08:19:36.466Z,5.64
2022-11-16T08:39:21.410Z,5.81
2022-11-16T09:19:27.041Z,6
2022-11-16T09:39:29.331Z,6.19
2022-11-16T09:58:55.723Z,6.35
2022-11-16T10:19:24.743Z,6.34
2022-11-16T10:39:28.129Z,6.65
2022-11-16T10:58:27.737Z,6.75
2022-11-16T11:19:45.117Z,6.46
2022-11-16T11:39:13.484Z,6.73
2022-11-16T11:58:57.287Z,6.97
2022-11-16T12:19:22.153Z,6.89
2022-11-16T12:38:45.244Z,7.2
2022-11-16T12:59:16.337Z,7.53
2022-11-16T13:18:44.778Z,7.47
2022-11-16T13:39:32.345Z,7.53
2022-11-16T13:59:48.764Z,7.78
2022-11-16T14:19:40.539Z,7.9
2022-11-16T14:38:37.595Z,7.99
2022-11-16T14:59:18.924Z,7.73
2022-11-16T15:18:56.329Z,7.55
2022-11-16T15:37:56.563Z,7.54
2022-11-16T15:58:39.306Z,7.55
2022-11-16T16:19:09.673Z,7.52
2022-11-16T16:39:14.904Z,7.53
2022-11-16T16:58:09.022Z,7.5
2022-11-16T17:19:08.346Z,7.53
2022-11-16T17:39:38.017Z,7.59
2022-11-16T17:57:59.870Z,7.62
2022-11-16T18:19:47.922Z,7.59
2022-11-16T18:39:15.840Z,7.62
2022-11-16T18:59:09.077Z,7.49
2022-11-16T19:18:30.804Z,7.42
2022-11-16T19:39:26.441Z,7.27
2022-11-16T19:58:48.207Z,7.2
2022-11-16T20:19:33.370Z,7.16
2022-11-16T20:39:56.152Z,7.2
2022-11-16T20:58:25.212Z,7.25
2022-11-16T21:19:26.772Z,7.25
2022-11-16T21:38:21.715Z,7.25
2022-11-16T21:59:18.036Z,7.3
2022-11-16T22:19:15.262Z,7.3
2022-11-16T22:39:11.909Z,7.33
2022-11-16T22:58:42.940Z,7.34
2022-11-16T23:19:39.288Z,7.29
2022-11-16T23:39:53.798Z,7.29
2022-11-16T23:59:50.067Z,7.3
